Time;durP1;ratioP1;P1;durP2;ratioP2;P2;SDS_P1;SDS_P2;PMS_P1;PMS_P2;Temp;Humidity;BMP_temperature;BMP_pressure;BME280_temperature;BME280_humidity;BME280_pressure;Samples;Min_cycle;Max_cycle;Signal;HPM_P1;HPM_P2
2022/07/07 00:02:09;;;;;;;6.10;2.05;;;17.40;99.90;;;;;;5061756;28;20119;-80
2022/07/07 00:04:35;;;;;;;6.15;1.85;;;17.30;99.90;;;;;;5037467;28;20047;-80
2022/07/07 00:07:01;;;;;;;4.85;1.90;;;17.30;99.90;;;;;;5047109;28;20067;-80
2022/07/07 00:09:27;;;;;;;6.07;1.98;;;17.20;99.90;;;;;;5062183;28;20052;-80
2022/07/07 00:11:54;;;;;;;7.72;1.90;;;17.20;99.90;;;;;;5044715;28;20060;-80
2022/07/07 00:14:20;;;;;;;7.25;2.20;;;17.20;99.90;;;;;;5035875;28;20044;-80
2022/07/07 00:16:46;;;;;;;5.15;1.67;;;17.20;99.90;;;;;;5035870;28;20052;-80
2022/07/07 00:19:12;;;;;;;6.97;1.92;;;17.20;99.90;;;;;;5063095;28;20089;-80
2022/07/07 00:21:37;;;;;;;6.75;1.90;;;17.10;99.90;;;;;;5063017;28;20047;-80
2022/07/07 00:24:03;;;;;;;8.38;1.95;;;17.10;99.90;;;;;;5029728;28;20563;-80
2022/07/07 00:26:33;;;;;;;7.05;1.85;;;17.20;99.90;;;;;;5044560;28;20044;-81
2022/07/07 00:28:59;;;;;;;5.72;1.63;;;17.20;99.90;;;;;;5014301;28;20496;-79
2022/07/07 00:31:24;;;;;;;4.05;1.73;;;17.20;99.90;;;;;;5046253;28;20422;-80
2022/07/07 00:33:50;;;;;;;8.00;2.10;;;17.20;99.90;;;;;;5053900;28;20056;-80
2022/07/07 00:36:16;;;;;;;6.68;2.13;;;17.20;99.90;;;;;;5029125;28;20133;-80
2022/07/07 00:38:42;;;;;;;10.25;2.20;;;17.20;99.90;;;;;;5045705;28;20040;-82
2022/07/07 00:41:08;;;;;;;13.07;2.60;;;17.20;99.90;;;;;;5046036;28;20036;-82
2022/07/07 00:43:41;;;;;;;8.30;2.53;;;17.20;99.90;;;;;;5045297;28;20044;-83
2022/07/07 00:46:08;;;;;;;9.60;2.15;;;17.30;99.90;;;;;;5060628;28;20499;-82
2022/07/07 00:48:36;;;;;;;10.90;2.33;;;17.30;99.90;;;;;;5061386;28;20144;-83
2022/07/07 00:51:04;;;;;;;5.72;1.95;;;17.30;99.90;;;;;;5061599;28;20055;-80
2022/07/07 00:53:30;;;;;;;10.52;2.35;;;17.30;99.90;;;;;;5044265;28;20181;-80
2022/07/07 00:55:56;;;;;;;10.38;2.45;;;17.30;99.90;;;;;;5061677;28;20120;-80
2022/07/07 00:58:22;;;;;;;7.68;1.83;;;17.30;99.90;;;;;;5061438;28;20201;-80
2022/07/07 01:00:48;;;;;;;7.15;2.00;;;17.30;99.90;;;;;;5061238;28;20093;-80
2022/07/07 01:03:14;;;;;;;9.73;2.20;;;17.30;99.90;;;;;;5044642;28;20056;-80
2022/07/07 01:05:41;;;;;;;11.32;2.13;;;17.30;99.90;;;;;;5061335;28;20415;-79
2022/07/07 01:08:08;;;;;;;9.02;2.20;;;17.30;99.90;;;;;;5061076;28;20558;-80
2022/07/07 01:10:34;;;;;;;11.07;2.78;;;17.40;99.90;;;;;;5059573;28;20078;-79
2022/07/07 01:13:04;;;;;;;14.25;2.45;;;17.40;99.90;;;;;;5050027;28;20060;-80
2022/07/07 01:15:30;;;;;;;5.70;1.55;;;17.40;99.90;;;;;;5045015;28;20049;-80
2022/07/07 01:17:56;;;;;;;4.45;1.33;;;17.30;99.90;;;;;;5060827;28;20048;-80
2022/07/07 01:28:22;;;;;;;6.05;1.80;;;17.10;99.90;;;;;;5179256;23;20060;-76
2022/07/07 01:30:48;;;;;;;5.80;1.73;;;17.10;99.90;;;;;;5027021;28;20044;-77
2022/07/07 01:33:16;;;;;;;9.57;1.75;;;17.00;99.90;;;;;;5027665;28;20072;-77
2022/07/07 01:35:41;;;;;;;7.32;2.30;;;17.00;99.90;;;;;;5036291;28;20063;-79
2022/07/07 01:38:07;;;;;;;5.80;2.00;;;17.00;99.90;;;;;;5044324;28;20466;-79
2022/07/07 01:40:33;;;;;;;8.98;1.73;;;17.00;99.90;;;;;;5026790;28;20513;-79
2022/07/07 01:42:58;;;;;;;7.32;2.10;;;17.00;99.90;;;;;;5043698;28;20055;-79
2022/07/07 01:45:24;;;;;;;6.22;1.80;;;17.00;99.90;;;;;;5025502;28;20054;-79
2022/07/07 01:47:50;;;;;;;7.07;2.20;;;16.90;99.90;;;;;;5044362;28;20047;-79
2022/07/07 01:50:16;;;;;;;9.10;2.10;;;16.90;99.90;;;;;;5044101;28;20081;-79
2022/07/07 01:52:41;;;;;;;7.30;2.03;;;16.90;99.90;;;;;;5027152;28;20131;-79
2022/07/07 01:55:08;;;;;;;9.68;2.35;;;17.00;99.90;;;;;;5027568;28;20097;-79
2022/07/07 01:57:34;;;;;;;6.68;1.92;;;16.90;99.90;;;;;;5028189;28;20048;-79
2022/07/07 01:59:59;;;;;;;5.50;1.90;;;16.90;99.90;;;;;;5060634;28;20049;-79
2022/07/07 02:02:25;;;;;;;10.45;2.13;;;16.90;99.90;;;;;;5025389;28;20044;-79
2022/07/07 02:04:51;;;;;;;8.25;2.08;;;17.00;99.90;;;;;;5043678;28;20048;-80
2022/07/07 02:07:16;;;;;;;6.40;1.98;;;16.90;99.90;;;;;;5027351;28;20097;-80
2022/07/07 02:09:42;;;;;;;8.70;1.92;;;17.00;99.90;;;;;;5044999;28;20076;-79
2022/07/07 02:12:08;;;;;;;7.00;1.70;;;16.90;99.90;;;;;;5043379;28;20091;-79
2022/07/07 02:14:34;;;;;;;3.38;1.33;;;16.90;99.90;;;;;;5061170;28;20397;-79
2022/07/07 02:17:00;;;;;;;8.48;1.73;;;16.90;99.90;;;;;;5044603;28;20040;-79
2022/07/07 02:19:25;;;;;;;6.35;1.30;;;16.90;99.90;;;;;;5043831;28;20082;-79
2022/07/07 02:21:51;;;;;;;6.68;1.58;;;16.80;99.90;;;;;;5026161;28;20139;-79
2022/07/07 02:24:17;;;;;;;8.98;1.63;;;16.80;99.90;;;;;;5043510;28;20043;-79
2022/07/07 02:26:43;;;;;;;9.60;1.75;;;16.80;99.90;;;;;;5059857;28;20533;-77
2022/07/07 02:29:09;;;;;;;9.77;1.70;;;16.80;99.90;;;;;;5044706;28;20044;-77
2022/07/07 02:31:35;;;;;;;8.32;1.50;;;16.80;99.90;;;;;;5043396;28;20054;-77
2022/07/07 02:34:01;;;;;;;7.18;1.90;;;16.70;99.90;;;;;;5059491;28;20576;-77
2022/07/07 02:36:27;;;;;;;11.55;1.80;;;16.70;99.90;;;;;;5060924;28;20040;-77
2022/07/07 02:38:53;;;;;;;5.35;1.15;;;16.70;99.90;;;;;;5043974;28;20098;-77
2022/07/07 02:41:19;;;;;;;5.63;1.35;;;16.70;99.90;;;;;;5059622;28;20048;-77
2022/07/07 02:43:45;;;;;;;4.95;1.45;;;16.70;99.90;;;;;;5043356;28;20067;-77
2022/07/07 02:46:10;;;;;;;5.47;0.88;;;16.70;99.90;;;;;;5044629;28;20513;-77
2022/07/07 02:48:37;;;;;;;4.95;1.33;;;16.60;99.90;;;;;;5043578;28;20070;-77
2022/07/07 02:51:03;;;;;;;4.80;0.98;;;16.60;99.90;;;;;;5028806;28;20134;-76
2022/07/07 02:53:28;;;;;;;4.53;1.00;;;16.60;99.90;;;;;;5026474;28;20668;-77
2022/07/07 02:55:54;;;;;;;5.25;1.23;;;16.60;99.90;;;;;;5060534;28;20045;-77
2022/07/07 02:58:22;;;;;;;5.25;1.10;;;16.60;99.90;;;;;;5042553;28;20510;-77
2022/07/07 03:00:49;;;;;;;6.57;1.45;;;16.60;99.90;;;;;;5028006;28;20048;-77
2022/07/07 03:03:15;;;;;;;5.00;1.40;;;16.50;99.90;;;;;;5059657;28;20105;-77
2022/07/07 03:05:41;;;;;;;3.60;1.02;;;16.60;99.90;;;;;;5060185;28;20123;-77
2022/07/07 03:08:07;;;;;;;6.18;1.30;;;16.50;99.90;;;;;;5060381;28;20642;-77
2022/07/07 03:10:33;;;;;;;7.15;1.23;;;16.50;99.90;;;;;;5026762;28;20473;-77
2022/07/07 03:12:58;;;;;;;5.22;1.13;;;16.50;99.90;;;;;;5060010;28;20689;-77
2022/07/07 03:15:24;;;;;;;7.78;1.90;;;16.40;99.90;;;;;;5042771;28;20090;-77
2022/07/07 03:17:52;;;;;;;6.93;1.55;;;16.40;99.90;;;;;;5060331;28;20051;-77
2022/07/07 03:20:18;;;;;;;4.88;1.45;;;16.40;99.90;;;;;;5026668;28;20139;-77
2022/07/07 03:22:44;;;;;;;6.00;1.38;;;16.40;99.90;;;;;;5059777;28;20048;-77
2022/07/07 03:25:11;;;;;;;4.32;1.15;;;16.40;99.90;;;;;;5043347;28;20067;-77
2022/07/07 03:27:37;;;;;;;7.18;1.40;;;16.40;99.90;;;;;;5042211;28;20071;-77
2022/07/07 03:30:05;;;;;;;5.38;1.70;;;16.40;99.90;;;;;;5043828;28;20500;-76
2022/07/07 03:32:31;;;;;;;7.47;1.52;;;16.40;99.90;;;;;;5047770;28;20853;-77
2022/07/07 03:34:57;;;;;;;6.38;1.58;;;16.30;99.90;;;;;;5046929;28;20048;-77
2022/07/07 03:37:24;;;;;;;8.40;1.92;;;16.30;99.90;;;;;;5026955;28;20502;-77
2022/07/07 03:39:49;;;;;;;11.32;1.88;;;16.20;99.90;;;;;;5059089;28;20410;-77
2022/07/07 03:42:15;;;;;;;4.57;1.75;;;16.20;99.90;;;;;;5043829;28;20057;-77
2022/07/07 03:44:41;;;;;;;4.82;1.30;;;16.20;99.90;;;;;;5027548;28;20095;-77
2022/07/07 03:47:07;;;;;;;6.60;1.25;;;16.20;99.90;;;;;;5047892;28;20135;-77
2022/07/07 03:49:32;;;;;;;7.90;1.70;;;16.10;99.90;;;;;;5028940;28;20133;-77
2022/07/07 03:51:58;;;;;;;8.98;1.50;;;16.10;99.90;;;;;;5046159;28;20040;-77
2022/07/07 03:54:24;;;;;;;5.50;1.45;;;16.10;99.90;;;;;;5046299;28;20554;-77
2022/07/07 03:56:50;;;;;;;9.25;2.20;;;16.20;99.90;;;;;;5030280;28;20066;-77
2022/07/07 03:59:15;;;;;;;11.05;2.00;;;16.20;99.90;;;;;;5029747;28;20048;-77
2022/07/07 04:01:44;;;;;;;10.40;1.65;;;16.20;99.90;;;;;;5046126;28;20113;-77
2022/07/07 04:04:14;;;;;;;11.80;2.30;;;16.20;99.90;;;;;;5047235;28;20129;-77
2022/07/07 04:06:43;;;;;;;8.23;2.13;;;16.20;99.90;;;;;;5063188;28;20052;-77
2022/07/07 04:09:09;;;;;;;8.27;1.95;;;16.20;99.90;;;;;;5046221;28;20046;-77
2022/07/07 04:11:35;;;;;;;5.97;1.70;;;16.30;99.90;;;;;;5044730;28;20345;-77
2022/07/07 04:14:01;;;;;;;8.45;1.98;;;16.20;99.90;;;;;;5063141;28;20048;-77
2022/07/07 04:16:29;;;;;;;9.52;2.45;;;16.20;99.90;;;;;;5029458;28;20411;-77
2022/07/07 04:18:55;;;;;;;7.70;2.08;;;16.20;99.90;;;;;;5029524;28;20052;-77
2022/07/07 04:21:21;;;;;;;9.50;2.10;;;16.20;99.90;;;;;;5059688;28;20086;-77
2022/07/07 04:23:46;;;;;;;8.32;1.73;;;16.30;99.90;;;;;;5012006;28;20051;-77
2022/07/07 04:26:12;;;;;;;9.50;1.83;;;16.30;99.90;;;;;;5059992;28;20508;-77
2022/07/07 04:28:38;;;;;;;5.30;1.52;;;16.20;99.90;;;;;;5026693;28;20048;-77
2022/07/07 04:31:04;;;;;;;9.23;1.75;;;16.30;99.90;;;;;;5011408;28;20044;-77
2022/07/07 04:33:29;;;;;;;12.88;1.90;;;16.30;99.90;;;;;;5043486;28;20846;-77
2022/07/07 04:35:55;;;;;;;8.93;1.65;;;16.30;99.90;;;;;;5012590;28;20109;-77
2022/07/07 04:38:21;;;;;;;4.72;1.67;;;16.30;99.90;;;;;;5061626;28;20470;-77
2022/07/07 04:40:46;;;;;;;9.05;1.70;;;16.30;99.90;;;;;;5045492;28;20044;-77
2022/07/07 04:43:12;;;;;;;6.30;1.95;;;16.30;99.90;;;;;;5028529;28;20052;-77
2022/07/07 04:45:38;;;;;;;7.43;1.50;;;16.30;99.90;;;;;;5029663;28;20046;-77
2022/07/07 04:48:04;;;;;;;5.88;1.60;;;16.30;99.90;;;;;;5012791;28;20566;-77
2022/07/07 04:50:30;;;;;;;5.00;1.20;;;16.30;99.90;;;;;;5045697;28;20131;-77
2022/07/07 04:52:56;;;;;;;6.50;1.30;;;16.30;99.90;;;;;;5029984;28;20097;-77
2022/07/07 04:55:21;;;;;;;8.18;1.23;;;16.30;99.90;;;;;;5011980;28;20405;-77
2022/07/07 04:57:47;;;;;;;6.82;1.27;;;16.30;99.90;;;;;;5028604;28;20036;-77
2022/07/07 05:00:13;;;;;;;6.75;1.50;;;16.40;99.90;;;;;;5062223;28;20035;-77
2022/07/07 05:02:39;;;;;;;5.15;1.88;;;16.40;99.90;;;;;;5028748;28;20056;-77
2022/07/07 05:05:08;;;;;;;6.68;1.48;;;16.40;99.90;;;;;;5012209;28;20082;-77
2022/07/07 05:07:34;;;;;;;4.72;1.13;;;16.40;99.90;;;;;;5063002;28;20051;-77
2022/07/07 05:09:59;;;;;;;6.40;1.33;;;16.50;99.90;;;;;;5062094;28;20040;-77
2022/07/07 05:12:26;;;;;;;5.45;1.00;;;16.40;99.90;;;;;;5052190;28;20101;-77
2022/07/07 05:14:51;;;;;;;4.25;1.27;;;16.40;99.90;;;;;;5045156;28;20048;-77
2022/07/07 05:17:17;;;;;;;5.53;1.00;;;16.40;99.90;;;;;;5028816;28;20063;-78
2022/07/07 05:19:43;;;;;;;6.35;1.55;;;16.40;99.90;;;;;;5027672;28;20040;-77
2022/07/07 05:22:09;;;;;;;4.60;1.13;;;16.40;99.90;;;;;;5027746;28;20073;-77
2022/07/07 05:24:35;;;;;;;6.60;1.30;;;16.30;99.90;;;;;;5061044;28;20521;-77
2022/07/07 05:27:01;;;;;;;4.72;1.40;;;16.30;99.90;;;;;;5026314;28;20127;-77
2022/07/07 05:29:27;;;;;;;3.70;1.17;;;16.30;99.90;;;;;;5060152;28;20059;-77
2022/07/07 05:31:53;;;;;;;3.50;1.00;;;16.30;99.90;;;;;;5042035;28;20055;-77
2022/07/07 05:34:18;;;;;;;4.68;1.00;;;16.30;99.90;;;;;;5044144;28;20106;-78
2022/07/07 05:36:44;;;;;;;4.60;1.20;;;16.30;99.90;;;;;;5068425;28;20044;-78
2022/07/07 05:39:13;;;;;;;4.75;1.20;;;16.30;99.90;;;;;;5044645;28;20051;-77
2022/07/07 05:41:39;;;;;;;4.45;1.50;;;16.30;99.90;;;;;;5045236;28;20456;-77
2022/07/07 05:44:05;;;;;;;6.40;1.40;;;16.30;99.90;;;;;;5010045;28;20044;-78
2022/07/07 05:46:33;;;;;;;5.57;1.42;;;16.30;99.90;;;;;;5029323;28;20159;-84
2022/07/07 05:48:59;;;;;;;3.13;1.00;;;16.30;99.90;;;;;;5028994;28;20048;-79
2022/07/07 05:51:24;;;;;;;6.78;1.33;;;16.30;99.90;;;;;;5043726;28;20554;-80
2022/07/07 05:53:50;;;;;;;5.05;1.20;;;16.30;99.90;;;;;;5044730;28;20406;-78
2022/07/07 05:56:16;;;;;;;3.45;1.33;;;16.20;99.90;;;;;;5028109;28;20099;-79
2022/07/07 05:58:42;;;;;;;9.50;2.40;;;16.30;99.90;;;;;;5027936;28;20820;-79
2022/07/07 06:01:07;;;;;;;7.18;1.10;;;16.30;99.90;;;;;;5044577;28;20083;-80
2022/07/07 06:03:33;;;;;;;6.55;1.40;;;16.30;99.90;;;;;;5028507;28;20448;-81
2022/07/07 06:05:59;;;;;;;7.18;1.80;;;16.30;99.90;;;;;;5044974;28;20040;-79
2022/07/07 06:08:25;;;;;;;6.65;1.38;;;16.30;99.90;;;;;;5028142;28;20093;-79
2022/07/07 06:10:51;;;;;;;6.20;1.42;;;16.20;99.90;;;;;;5044186;28;20056;-79
2022/07/07 06:13:17;;;;;;;6.25;1.35;;;16.40;99.90;;;;;;5026333;28;20163;-80
2022/07/07 06:15:43;;;;;;;6.03;1.33;;;16.50;99.90;;;;;;5059849;28;20130;-79
2022/07/07 06:18:09;;;;;;;6.57;1.70;;;16.50;99.90;;;;;;5028870;28;20044;-78
2022/07/07 06:20:34;;;;;;;5.82;1.25;;;16.50;99.90;;;;;;5027537;28;20040;-79
2022/07/07 06:23:00;;;;;;;4.80;1.55;;;16.50;99.90;;;;;;5043173;28;20382;-78
2022/07/07 06:25:26;;;;;;;8.55;1.70;;;16.50;99.90;;;;;;5043271;28;20750;-78
2022/07/07 06:27:52;;;;;;;5.53;1.30;;;16.50;99.90;;;;;;5060345;28;20098;-78
2022/07/07 06:30:18;;;;;;;4.93;1.40;;;16.50;99.90;;;;;;5060285;28;20093;-78
2022/07/07 06:32:44;;;;;;;4.60;1.13;;;16.50;99.90;;;;;;5034962;28;20044;-78
2022/07/07 06:35:10;;;;;;;6.65;1.50;;;16.60;99.90;;;;;;5045758;28;20047;-78
2022/07/07 06:37:36;;;;;;;5.82;1.30;;;16.70;99.90;;;;;;5044008;28;20072;-78
2022/07/07 06:40:02;;;;;;;6.85;1.42;;;16.80;99.90;;;;;;5028185;28;20129;-78
2022/07/07 06:42:28;;;;;;;6.05;1.35;;;16.90;99.90;;;;;;5043646;28;20506;-78
2022/07/07 06:44:53;;;;;;;5.85;1.52;;;17.00;99.90;;;;;;5046522;28;20141;-78
2022/07/07 06:47:19;;;;;;;7.32;1.42;;;17.20;99.90;;;;;;5031095;28;20045;-79
2022/07/07 06:49:45;;;;;;;6.88;1.33;;;17.40;99.90;;;;;;5032532;28;20040;-79
2022/07/07 06:52:12;;;;;;;6.03;1.60;;;17.50;99.90;;;;;;5047645;28;20071;-79
2022/07/07 06:54:38;;;;;;;4.63;1.13;;;17.50;99.90;;;;;;5043807;28;20048;-80
2022/07/07 06:57:06;;;;;;;3.78;0.95;;;17.50;99.90;;;;;;5027896;28;20060;-80
2022/07/07 06:59:32;;;;;;;6.40;1.35;;;17.40;99.90;;;;;;5042843;28;20067;-79
2022/07/07 07:01:58;;;;;;;4.70;1.33;;;17.30;99.90;;;;;;5026075;28;20044;-79
2022/07/07 07:04:24;;;;;;;10.98;1.65;;;17.30;99.90;;;;;;5035353;28;20048;-80
2022/07/07 07:06:49;;;;;;;7.00;1.63;;;17.40;99.90;;;;;;5007678;28;20033;-80
2022/07/07 07:09:15;;;;;;;6.53;1.83;;;17.60;99.90;;;;;;5043949;28;20051;-80
2022/07/07 07:11:41;;;;;;;10.95;1.80;;;17.80;99.90;;;;;;5041962;28;20131;-81
2022/07/07 07:14:07;;;;;;;5.68;1.35;;;17.90;99.90;;;;;;5043252;28;20565;-81
2022/07/07 07:16:32;;;;;;;3.58;1.08;;;17.90;99.90;;;;;;5043757;28;20056;-81
2022/07/07 07:18:58;;;;;;;2.75;0.77;;;17.80;99.90;;;;;;5044934;28;20085;-80
2022/07/07 07:21:24;;;;;;;4.88;1.30;;;17.70;99.90;;;;;;5030184;28;20048;-80
2022/07/07 07:23:50;;;;;;;6.22;1.40;;;17.60;99.90;;;;;;5013933;28;20128;-79
2022/07/07 07:26:16;;;;;;;7.00;1.73;;;17.60;99.90;;;;;;5047772;28;20052;-79
2022/07/07 07:28:42;;;;;;;3.97;1.58;;;17.60;99.90;;;;;;5046166;28;20107;-80
2022/07/07 07:31:08;;;;;;;5.57;1.17;;;17.50;99.90;;;;;;5047291;28;20048;-80
2022/07/07 07:33:35;;;;;;;5.30;1.15;;;17.60;99.90;;;;;;5013843;28;20054;-80
2022/07/07 07:36:02;;;;;;;6.90;1.40;;;17.70;99.90;;;;;;5046805;28;20382;-79
2022/07/07 07:38:28;;;;;;;5.95;1.30;;;17.90;99.90;;;;;;5046509;28;20087;-80
2022/07/07 07:40:54;;;;;;;8.57;1.58;;;18.00;99.90;;;;;;5046090;28;20040;-80
2022/07/07 07:43:20;;;;;;;5.38;1.77;;;18.10;99.90;;;;;;5029105;28;20036;-80
2022/07/07 07:45:46;;;;;;;5.20;1.50;;;18.10;99.90;;;;;;5048197;28;20168;-79
2022/07/07 07:48:11;;;;;;;7.18;1.67;;;18.10;99.90;;;;;;5030175;28;20044;-80
2022/07/07 07:50:37;;;;;;;6.07;1.63;;;18.10;99.90;;;;;;5030633;28;20099;-80
2022/07/07 07:53:04;;;;;;;7.15;1.67;;;18.00;99.90;;;;;;5030001;28;20063;-82
2022/07/07 07:55:31;;;;;;;3.65;1.00;;;17.90;99.90;;;;;;5046436;28;20056;-79
2022/07/07 07:57:56;;;;;;;3.88;1.10;;;17.90;99.90;;;;;;5063371;28;20039;-80
2022/07/07 08:00:23;;;;;;;6.57;1.33;;;18.00;99.90;;;;;;5029291;28;20044;-80
2022/07/07 08:02:49;;;;;;;4.63;0.80;;;18.10;99.90;;;;;;5044914;28;20053;-80
2022/07/07 08:05:16;;;;;;;6.80;1.35;;;18.20;99.90;;;;;;5063174;28;20043;-80
2022/07/07 08:07:43;;;;;;;6.13;1.40;;;18.20;99.90;;;;;;5029768;28;20071;-80
2022/07/07 08:10:11;;;;;;;4.32;1.20;;;18.50;99.90;;;;;;5047126;28;20135;-80
2022/07/07 08:12:37;;;;;;;5.40;1.35;;;18.70;99.90;;;;;;5045701;28;20449;-80
2022/07/07 08:15:04;;;;;;;5.80;1.90;;;18.80;99.90;;;;;;5053651;28;20048;-82
2022/07/07 08:17:30;;;;;;;6.40;1.63;;;18.80;99.90;;;;;;5046009;28;20047;-82
2022/07/07 08:19:55;;;;;;;4.65;1.30;;;18.70;99.90;;;;;;5028590;28;20127;-81
2022/07/07 08:22:21;;;;;;;4.38;1.42;;;18.70;99.90;;;;;;5060972;28;20054;-82
2022/07/07 08:24:47;;;;;;;7.38;1.30;;;18.70;99.90;;;;;;5028896;28;20083;-82
2022/07/07 08:27:13;;;;;;;5.35;1.92;;;18.80;99.90;;;;;;5044798;28;20115;-82
2022/07/07 08:29:41;;;;;;;7.32;1.60;;;18.80;99.90;;;;;;5027893;28;20048;-80
2022/07/07 08:32:10;;;;;;;3.15;1.10;;;18.80;99.90;;;;;;5062581;28;20036;-79
2022/07/07 08:34:37;;;;;;;4.38;1.50;;;18.70;99.90;;;;;;5045384;28;20497;-80
2022/07/07 08:37:03;;;;;;;5.85;1.45;;;18.70;99.90;;;;;;5046071;28;20134;-80
2022/07/07 08:39:29;;;;;;;6.03;1.55;;;18.60;99.90;;;;;;5045065;28;20053;-80
2022/07/07 08:41:55;;;;;;;3.58;1.23;;;18.70;99.90;;;;;;5028763;28;20047;-82
2022/07/07 08:44:21;;;;;;;6.00;1.85;;;18.90;99.90;;;;;;5029582;28;20101;-80
2022/07/07 08:46:47;;;;;;;5.53;1.40;;;19.10;99.90;;;;;;5028419;28;20041;-80
2022/07/07 08:49:13;;;;;;;5.82;1.48;;;19.10;99.90;;;;;;5029122;28;20036;-82
2022/07/07 08:51:43;;;;;;;7.35;1.42;;;19.00;99.90;;;;;;5029031;28;20081;-80
2022/07/07 08:54:10;;;;;;;5.47;1.23;;;18.80;99.90;;;;;;5045891;28;20135;-80
2022/07/07 08:56:38;;;;;;;3.85;0.70;;;18.60;99.90;;;;;;5045613;28;20048;-80
2022/07/07 08:59:09;;;;;;;3.83;0.80;;;18.40;99.90;;;;;;5044247;28;20052;-80
2022/07/07 09:01:36;;;;;;;3.70;1.00;;;18.40;99.90;;;;;;5060835;28;20480;-80
2022/07/07 09:04:02;;;;;;;7.75;1.20;;;18.30;99.90;;;;;;5054100;28;20056;-81
2022/07/07 09:06:29;;;;;;;4.65;1.15;;;18.40;99.90;;;;;;5029140;28;20127;-81
2022/07/07 09:08:55;;;;;;;5.70;1.45;;;18.60;99.90;;;;;;5061366;28;20060;-81
2022/07/07 09:11:29;;;;;;;4.75;1.17;;;18.60;99.90;;;;;;5070116;28;20534;-81
2022/07/07 09:14:15;;;;;;;4.25;1.15;;;18.60;99.90;;;;;;5044489;28;20116;-81
2022/07/07 09:16:41;;;;;;;3.45;1.23;;;18.50;99.90;;;;;;5061908;28;20044;-81
2022/07/07 09:19:20;;;;;;;4.15;1.08;;;18.40;99.90;;;;;;5045447;28;20062;-81
2022/07/07 09:21:46;;;;;;;4.35;1.20;;;18.50;99.90;;;;;;5045131;28;20052;-81
2022/07/07 09:24:13;;;;;;;3.55;1.25;;;18.50;99.90;;;;;;5061237;28;20048;-81
2022/07/07 09:26:51;;;;;;;4.60;1.27;;;18.60;99.90;;;;;;5036661;28;20092;-81
2022/07/07 09:29:22;;;;;;;8.95;1.90;;;18.70;99.90;;;;;;5062374;28;20099;-81
2022/07/07 09:32:04;;;;;;;7.65;2.40;;;18.80;99.90;;;;;;5036479;28;20051;-81
2022/07/07 09:34:36;;;;;;;4.20;1.50;;;18.70;99.90;;;;;;5012897;28;20151;-81
2022/07/07 09:39:56;;;;;;;7.65;1.50;;;18.90;99.90;;;;;;5061494;28;20601;-81
2022/07/07 09:42:26;;;;;;;11.20;2.20;;;18.90;99.90;;;;;;5043781;28;20052;-81
2022/07/07 09:45:00;;;;;;;6.40;1.83;;;19.10;99.90;;;;;;5060663;28;20413;-81
2022/07/07 09:47:27;;;;;;;7.93;2.00;;;19.20;99.90;;;;;;5062993;28;20040;-81
2022/07/07 09:50:06;;;;;;;10.50;2.13;;;19.10;99.90;;;;;;5052482;28;20048;-81
2022/07/07 09:52:34;;;;;;;8.05;1.83;;;19.00;99.90;;;;;;5044813;28;20056;-81
2022/07/07 09:55:01;;;;;;;11.50;2.50;;;18.90;99.90;;;;;;5052569;28;20388;-81
2022/07/07 09:57:27;;;;;;;13.38;2.70;;;18.80;99.90;;;;;;5052168;28;20425;-81
2022/07/07 09:59:53;;;;;;;12.00;2.35;;;18.60;99.90;;;;;;5043272;28;20044;-81
2022/07/07 10:02:24;;;;;;;9.35;2.58;;;18.50;99.90;;;;;;5035554;28;20258;-81
2022/07/07 10:04:51;;;;;;;9.18;2.20;;;18.50;99.90;;;;;;5027323;28;20494;-81
2022/07/07 10:07:20;;;;;;;8.18;2.17;;;18.50;99.90;;;;;;5067242;28;20048;-81
2022/07/07 10:09:50;;;;;;;7.38;1.90;;;18.60;99.90;;;;;;5046020;28;20052;-81
2022/07/07 10:12:17;;;;;;;6.00;2.08;;;18.70;99.90;;;;;;5051601;28;20081;-86
2022/07/07 10:14:44;;;;;;;5.53;1.67;;;18.90;99.90;;;;;;5013544;28;20085;-83
2022/07/07 10:17:12;;;;;;;8.25;2.17;;;19.00;99.90;;;;;;5042959;28;20044;-82
2022/07/07 10:19:38;;;;;;;6.07;1.60;;;19.10;99.90;;;;;;5044181;28;20376;-81
2022/07/07 10:22:04;;;;;;;7.97;2.08;;;19.10;99.90;;;;;;5058469;28;20051;-79
2022/07/07 10:24:32;;;;;;;6.93;1.70;;;19.30;99.90;;;;;;5034847;28;20048;-78
2022/07/07 10:27:01;;;;;;;6.07;1.95;;;19.30;99.90;;;;;;5026194;28;20509;-77
2022/07/07 10:29:40;;;;;;;5.85;1.50;;;19.50;99.90;;;;;;5068438;28;20049;-77
2022/07/07 10:32:08;;;;;;;6.93;2.03;;;19.60;99.90;;;;;;5042521;28;20166;-77
2022/07/07 10:34:37;;;;;;;7.80;2.13;;;19.80;99.90;;;;;;5060292;28;20064;-78
2022/07/07 10:37:05;;;;;;;6.10;1.70;;;19.90;99.90;;;;;;5042679;28;20119;-78
2022/07/07 10:39:34;;;;;;;6.47;1.58;;;20.10;99.90;;;;;;5043279;28;20052;-78
2022/07/07 10:42:05;;;;;;;7.65;1.63;;;20.10;99.90;;;;;;5059222;28;20055;-78
2022/07/07 10:44:33;;;;;;;7.28;2.08;;;20.10;99.90;;;;;;5060170;28;20047;-78
2022/07/07 10:47:24;;;;;;;7.00;1.80;;;20.30;99.90;;;;;;5059710;28;20056;-80
2022/07/07 10:50:10;;;;;;;12.38;2.30;;;20.70;99.90;;;;;;5058705;28;20510;-80
2022/07/07 10:52:41;;;;;;;6.55;1.88;;;21.10;99.90;;;;;;5060541;28;20052;-79
2022/07/07 10:55:18;;;;;;;11.68;2.03;;;21.50;99.90;;;;;;5063111;28;20207;-78
2022/07/07 10:57:46;;;;;;;11.00;2.22;;;21.50;99.90;;;;;;5031602;28;20048;-80
2022/07/07 11:00:26;;;;;;;7.97;2.00;;;21.40;99.90;;;;;;5055209;28;20059;-80
2022/07/07 11:02:58;;;;;;;9.80;1.90;;;21.30;99.90;;;;;;5062955;28;20052;-84
2022/07/07 11:05:26;;;;;;;7.40;1.75;;;21.10;99.90;;;;;;5046155;28;20047;-83
2022/07/07 11:07:55;;;;;;;9.07;1.95;;;20.80;99.90;;;;;;5046397;28;20054;-82
2022/07/07 11:10:22;;;;;;;6.82;1.52;;;20.50;99.90;;;;;;5054851;28;20056;-82
2022/07/07 11:12:48;;;;;;;9.82;1.98;;;20.40;99.90;;;;;;5037990;28;20041;-82
2022/07/07 11:15:28;;;;;;;5.95;1.60;;;20.30;99.90;;;;;;5047221;28;20040;-80
2022/07/07 11:17:56;;;;;;;7.93;1.75;;;20.20;99.90;;;;;;5055477;28;20406;-80
2022/07/07 11:20:29;;;;;;;5.90;2.17;;;20.30;99.90;;;;;;5064215;28;20054;-80
2022/07/07 11:23:04;;;;;;;8.80;2.05;;;20.40;99.90;;;;;;5062829;28;20135;-80
2022/07/07 11:25:30;;;;;;;11.70;2.97;;;20.50;99.90;;;;;;5048401;28;20076;-80
2022/07/07 11:27:57;;;;;;;10.85;2.13;;;20.30;99.90;;;;;;5029147;28;20140;-80
2022/07/07 11:30:25;;;;;;;6.80;2.03;;;20.20;99.90;;;;;;5047666;28;20051;-80
2022/07/07 11:32:51;;;;;;;6.68;1.83;;;20.20;99.90;;;;;;5044284;28;20044;-80
2022/07/07 11:35:17;;;;;;;11.80;1.70;;;20.20;99.90;;;;;;5063150;28;20140;-80
2022/07/07 11:37:46;;;;;;;7.57;1.77;;;20.10;99.90;;;;;;5030204;28;20402;-80
2022/07/07 11:40:12;;;;;;;5.75;1.75;;;20.20;99.90;;;;;;5047012;28;20101;-80
2022/07/07 11:42:39;;;;;;;5.93;1.50;;;20.20;99.90;;;;;;5063896;28;20132;-80
2022/07/07 11:45:28;;;;;;;7.88;1.90;;;20.10;99.90;;;;;;5029002;28;20051;-82
2022/07/07 11:48:02;;;;;;;7.10;1.80;;;20.20;99.90;;;;;;5062724;28;20052;-83
2022/07/07 11:50:31;;;;;;;7.85;1.88;;;20.10;99.90;;;;;;5038011;28;20127;-83
2022/07/07 11:53:00;;;;;;;8.25;1.70;;;20.20;99.90;;;;;;5046817;28;20079;-83
2022/07/07 11:55:26;;;;;;;8.43;2.35;;;20.10;99.90;;;;;;5062808;28;20557;-82
2022/07/07 11:57:54;;;;;;;8.90;1.90;;;19.90;99.90;;;;;;5061956;28;20087;-82
2022/07/07 12:00:28;;;;;;;8.77;2.25;;;19.80;99.90;;;;;;5062555;28;20040;-83
2022/07/07 12:02:56;;;;;;;7.70;1.75;;;19.70;99.90;;;;;;5062963;28;20052;-82
2022/07/07 12:05:27;;;;;;;6.88;1.80;;;19.70;99.90;;;;;;5043425;28;20495;-82
2022/07/07 12:08:04;;;;;;;8.65;2.20;;;19.70;99.90;;;;;;5028569;28;20064;-82
2022/07/07 12:10:39;;;;;;;9.70;2.25;;;19.60;99.90;;;;;;5062840;28;20044;-82
2022/07/07 12:13:08;;;;;;;8.02;2.13;;;19.60;99.90;;;;;;5045859;28;20061;-83
2022/07/07 12:15:40;;;;;;;7.32;1.80;;;19.70;99.90;;;;;;5044097;28;20036;-82
2022/07/07 12:18:07;;;;;;;6.05;1.67;;;19.60;99.90;;;;;;5044159;28;20051;-82
2022/07/07 12:20:34;;;;;;;8.75;2.00;;;19.70;99.90;;;;;;5044303;28;20035;-82
2022/07/07 12:23:02;;;;;;;5.13;1.63;;;19.70;99.90;;;;;;5061818;28;20052;-82
2022/07/07 12:25:31;;;;;;;5.45;1.80;;;19.70;99.90;;;;;;5046051;28;20094;-82
2022/07/07 12:28:07;;;;;;;7.00;1.83;;;19.70;99.90;;;;;;5061733;28;20056;-80
2022/07/07 12:30:48;;;;;;;7.22;2.03;;;19.70;99.90;;;;;;5045353;28;20060;-81
2022/07/07 12:33:33;;;;;;;9.00;2.25;;;19.70;99.90;;;;;;5053247;28;20890;-81
2022/07/07 12:36:08;;;;;;;7.47;1.52;;;19.70;99.90;;;;;;5045933;28;20052;-81
2022/07/07 12:38:37;;;;;;;;;;;19.70;99.90;;;;;;5047035;28;20438;-81
2022/07/07 12:41:03;;;;;;;8.20;2.00;;;19.60;99.90;;;;;;5052790;28;19924;-81
2022/07/07 12:43:34;;;;;;;6.85;1.73;;;19.70;99.90;;;;;;5062063;28;20049;-80
2022/07/07 12:46:08;;;;;;;6.80;1.60;;;19.70;99.90;;;;;;5046307;28;20390;-81
2022/07/07 12:48:53;;;;;;;9.38;2.10;;;19.90;99.90;;;;;;5061749;28;20082;-80
2022/07/07 12:51:25;;;;;;;8.38;2.20;;;19.90;99.90;;;;;;5027178;28;20082;-81
2022/07/07 12:53:51;;;;;;;7.53;1.60;;;19.80;99.90;;;;;;5045671;28;20054;-81
2022/07/07 12:56:16;;;;;;;6.53;1.70;;;19.70;99.90;;;;;;5045497;28;20059;-81
2022/07/07 12:58:50;;;;;;;11.05;1.80;;;19.70;99.90;;;;;;5028582;28;20048;-80